sensor_id;sensor_type;location;lat;lon;timestamp;P1;durP1;ratioP1;P2;durP2;ratioP2
25663;SDS011;13522;50.018;20.014;2023-02-25T00:02:52;15.58;;;5.75;;
25663;SDS011;13522;50.018;20.014;2023-02-25T00:06:06;10.93;;;5.63;;
25663;SDS011;13522;50.018;20.014;2023-02-25T00:09:20;11.35;;;5.03;;
25663;SDS011;13522;50.018;20.014;2023-02-25T00:12:32;12.58;;;5.95;;
25663;SDS011;13522;50.018;20.014;2023-02-25T00:15:45;17.75;;;6.00;;
25663;SDS011;13522;50.018;20.014;2023-02-25T00:18:57;13.43;;;5.95;;
25663;SDS011;13522;50.018;20.014;2023-02-25T00:22:10;16.55;;;6.33;;
25663;SDS011;13522;50.018;20.014;2023-02-25T00:25:22;16.23;;;5.65;;
25663;SDS011;13522;50.018;20.014;2023-02-25T00:28:35;10.58;;;5.23;;
25663;SDS011;13522;50.018;20.014;2023-02-25T00:31:48;11.30;;;5.90;;
25663;SDS011;13522;50.018;20.014;2023-02-25T00:35:00;11.55;;;5.98;;
25663;SDS011;13522;50.018;20.014;2023-02-25T00:38:15;13.58;;;6.03;;
25663;SDS011;13522;50.018;20.014;2023-02-25T00:41:28;13.03;;;6.10;;
25663;SDS011;13522;50.018;20.014;2023-02-25T00:44:41;12.65;;;5.88;;
25663;SDS011;13522;50.018;20.014;2023-02-25T00:47:55;12.00;;;6.13;;
25663;SDS011;13522;50.018;20.014;2023-02-25T00:51:09;13.48;;;5.55;;
25663;SDS011;13522;50.018;20.014;2023-02-25T00:54:23;14.55;;;6.00;;
25663;SDS011;13522;50.018;20.014;2023-02-25T00:57:36;11.50;;;6.38;;
25663;SDS011;13522;50.018;20.014;2023-02-25T01:00:49;13.33;;;6.70;;
25663;SDS011;13522;50.018;20.014;2023-02-25T01:04:01;14.45;;;7.10;;
25663;SDS011;13522;50.018;20.014;2023-02-25T01:07:14;15.23;;;6.30;;
25663;SDS011;13522;50.018;20.014;2023-02-25T01:10:28;14.18;;;6.20;;
25663;SDS011;13522;50.018;20.014;2023-02-25T01:13:40;15.40;;;5.93;;
25663;SDS011;13522;50.018;20.014;2023-02-25T01:16:53;12.43;;;6.58;;
25663;SDS011;13522;50.018;20.014;2023-02-25T01:20:07;13.05;;;6.38;;
25663;SDS011;13522;50.018;20.014;2023-02-25T01:23:23;10.23;;;6.18;;
25663;SDS011;13522;50.018;20.014;2023-02-25T01:26:37;11.73;;;6.28;;
25663;SDS011;13522;50.018;20.014;2023-02-25T01:29:52;11.60;;;6.18;;
25663;SDS011;13522;50.018;20.014;2023-02-25T01:33:05;17.28;;;6.75;;
25663;SDS011;13522;50.018;20.014;2023-02-25T01:36:17;14.80;;;6.53;;
25663;SDS011;13522;50.018;20.014;2023-02-25T01:39:29;10.88;;;5.93;;
25663;SDS011;13522;50.018;20.014;2023-02-25T01:42:41;12.23;;;6.63;;
25663;SDS011;13522;50.018;20.014;2023-02-25T01:45:54;12.83;;;6.80;;
25663;SDS011;13522;50.018;20.014;2023-02-25T01:49:08;12.55;;;7.15;;
25663;SDS011;13522;50.018;20.014;2023-02-25T01:52:24;16.83;;;7.95;;
25663;SDS011;13522;50.018;20.014;2023-02-25T01:55:36;13.50;;;7.75;;
25663;SDS011;13522;50.018;20.014;2023-02-25T01:58:50;15.03;;;8.13;;
25663;SDS011;13522;50.018;20.014;2023-02-25T02:02:04;15.10;;;8.38;;
25663;SDS011;13522;50.018;20.014;2023-02-25T02:05:18;14.55;;;7.68;;
25663;SDS011;13522;50.018;20.014;2023-02-25T02:08:36;16.50;;;7.30;;
25663;SDS011;13522;50.018;20.014;2023-02-25T02:11:51;19.25;;;8.80;;
25663;SDS011;13522;50.018;20.014;2023-02-25T02:15:08;19.28;;;8.65;;
25663;SDS011;13522;50.018;20.014;2023-02-25T02:18:23;20.40;;;9.60;;
25663;SDS011;13522;50.018;20.014;2023-02-25T02:21:44;21.38;;;9.08;;
25663;SDS011;13522;50.018;20.014;2023-02-25T02:32:50;14.88;;;7.73;;
25663;SDS011;13522;50.018;20.014;2023-02-25T02:36:08;13.93;;;8.53;;
25663;SDS011;13522;50.018;20.014;2023-02-25T02:39:27;14.03;;;8.53;;
25663;SDS011;13522;50.018;20.014;2023-02-25T02:42:52;13.70;;;7.68;;
25663;SDS011;13522;50.018;20.014;2023-02-25T02:46:19;15.78;;;7.83;;
25663;SDS011;13522;50.018;20.014;2023-02-25T02:49:37;16.18;;;8.00;;
25663;SDS011;13522;50.018;20.014;2023-02-25T02:52:55;16.38;;;7.88;;
25663;SDS011;13522;50.018;20.014;2023-02-25T02:56:13;13.83;;;7.83;;
25663;SDS011;13522;50.018;20.014;2023-02-25T02:59:29;16.43;;;8.58;;
25663;SDS011;13522;50.018;20.014;2023-02-25T03:02:49;13.23;;;7.35;;
25663;SDS011;13522;50.018;20.014;2023-02-25T03:06:06;12.75;;;6.90;;
25663;SDS011;13522;50.018;20.014;2023-02-25T03:09:22;12.90;;;6.80;;
25663;SDS011;13522;50.018;20.014;2023-02-25T03:12:39;11.68;;;6.68;;
25663;SDS011;13522;50.018;20.014;2023-02-25T03:15:51;11.38;;;6.53;;
25663;SDS011;13522;50.018;20.014;2023-02-25T03:19:07;12.95;;;6.88;;
25663;SDS011;13522;50.018;20.014;2023-02-25T03:22:25;11.75;;;6.90;;
25663;SDS011;13522;50.018;20.014;2023-02-25T03:25:43;15.43;;;7.33;;
25663;SDS011;13522;50.018;20.014;2023-02-25T03:28:59;13.28;;;7.98;;
25663;SDS011;13522;50.018;20.014;2023-02-25T03:32:12;11.48;;;7.13;;
25663;SDS011;13522;50.018;20.014;2023-02-25T03:35:28;15.63;;;7.30;;
25663;SDS011;13522;50.018;20.014;2023-02-25T03:38:45;14.85;;;7.88;;
25663;SDS011;13522;50.018;20.014;2023-02-25T03:42:02;14.03;;;7.43;;
25663;SDS011;13522;50.018;20.014;2023-02-25T03:45:19;14.73;;;7.13;;
25663;SDS011;13522;50.018;20.014;2023-02-25T03:48:35;13.10;;;6.30;;
25663;SDS011;13522;50.018;20.014;2023-02-25T03:51:49;11.98;;;6.80;;
25663;SDS011;13522;50.018;20.014;2023-02-25T03:55:06;10.98;;;7.00;;
25663;SDS011;13522;50.018;20.014;2023-02-25T03:58:21;11.10;;;7.37;;
25663;SDS011;13522;50.018;20.014;2023-02-25T04:01:34;12.73;;;7.20;;
25663;SDS011;13522;50.018;20.014;2023-02-25T04:04:47;16.35;;;8.53;;
25663;SDS011;13522;50.018;20.014;2023-02-25T04:08:01;15.75;;;9.50;;
25663;SDS011;13522;50.018;20.014;2023-02-25T04:11:16;16.10;;;9.05;;
25663;SDS011;13522;50.018;20.014;2023-02-25T04:14:28;17.23;;;9.55;;
25663;SDS011;13522;50.018;20.014;2023-02-25T04:17:41;16.18;;;9.78;;
25663;SDS011;13522;50.018;20.014;2023-02-25T04:20:53;17.00;;;8.73;;
25663;SDS011;13522;50.018;20.014;2023-02-25T04:24:06;15.10;;;8.18;;
25663;SDS011;13522;50.018;20.014;2023-02-25T04:27:18;11.03;;;7.58;;
25663;SDS011;13522;50.018;20.014;2023-02-25T04:30:30;16.08;;;9.55;;
25663;SDS011;13522;50.018;20.014;2023-02-25T04:33:43;15.13;;;9.00;;
25663;SDS011;13522;50.018;20.014;2023-02-25T04:36:56;15.93;;;10.38;;
25663;SDS011;13522;50.018;20.014;2023-02-25T04:40:11;16.38;;;10.23;;
25663;SDS011;13522;50.018;20.014;2023-02-25T04:43:27;15.90;;;9.70;;
25663;SDS011;13522;50.018;20.014;2023-02-25T04:46:39;16.98;;;9.98;;
25663;SDS011;13522;50.018;20.014;2023-02-25T04:49:54;17.23;;;11.03;;
25663;SDS011;13522;50.018;20.014;2023-02-25T04:53:06;19.93;;;10.30;;
25663;SDS011;13522;50.018;20.014;2023-02-25T04:56:18;17.78;;;10.30;;
25663;SDS011;13522;50.018;20.014;2023-02-25T04:59:31;13.85;;;8.70;;
25663;SDS011;13522;50.018;20.014;2023-02-25T05:02:43;13.80;;;9.03;;
25663;SDS011;13522;50.018;20.014;2023-02-25T05:05:56;15.13;;;10.23;;
25663;SDS011;13522;50.018;20.014;2023-02-25T05:09:08;16.85;;;11.60;;
25663;SDS011;13522;50.018;20.014;2023-02-25T05:12:20;19.73;;;10.93;;
25663;SDS011;13522;50.018;20.014;2023-02-25T05:15:32;15.60;;;11.10;;
25663;SDS011;13522;50.018;20.014;2023-02-25T05:18:45;16.53;;;10.45;;
25663;SDS011;13522;50.018;20.014;2023-02-25T05:21:57;15.90;;;9.70;;
25663;SDS011;13522;50.018;20.014;2023-02-25T05:25:10;10.75;;;6.70;;
25663;SDS011;13522;50.018;20.014;2023-02-25T05:28:22;9.73;;;6.20;;
25663;SDS011;13522;50.018;20.014;2023-02-25T05:31:34;10.08;;;6.53;;
25663;SDS011;13522;50.018;20.014;2023-02-25T05:34:48;7.85;;;5.48;;
25663;SDS011;13522;50.018;20.014;2023-02-25T05:38:01;10.20;;;5.60;;
25663;SDS011;13522;50.018;20.014;2023-02-25T05:41:13;9.75;;;6.05;;
25663;SDS011;13522;50.018;20.014;2023-02-25T05:44:25;10.50;;;6.63;;
25663;SDS011;13522;50.018;20.014;2023-02-25T05:47:38;11.83;;;7.30;;
25663;SDS011;13522;50.018;20.014;2023-02-25T05:50:58;12.73;;;7.40;;
25663;SDS011;13522;50.018;20.014;2023-02-25T05:54:13;14.65;;;7.48;;
25663;SDS011;13522;50.018;20.014;2023-02-25T05:57:28;10.60;;;7.08;;
25663;SDS011;13522;50.018;20.014;2023-02-25T06:00:44;11.60;;;7.70;;
25663;SDS011;13522;50.018;20.014;2023-02-25T06:03:59;12.78;;;7.68;;
25663;SDS011;13522;50.018;20.014;2023-02-25T06:07:12;16.18;;;8.90;;
25663;SDS011;13522;50.018;20.014;2023-02-25T06:10:24;12.95;;;8.53;;
25663;SDS011;13522;50.018;20.014;2023-02-25T06:13:39;11.95;;;8.10;;
25663;SDS011;13522;50.018;20.014;2023-02-25T06:16:52;13.80;;;8.30;;
25663;SDS011;13522;50.018;20.014;2023-02-25T06:20:07;16.08;;;9.68;;
25663;SDS011;13522;50.018;20.014;2023-02-25T06:23:24;13.70;;;9.80;;
25663;SDS011;13522;50.018;20.014;2023-02-25T06:26:37;14.98;;;10.15;;
25663;SDS011;13522;50.018;20.014;2023-02-25T06:29:50;14.13;;;9.88;;
25663;SDS011;13522;50.018;20.014;2023-02-25T06:33:05;15.65;;;10.48;;
25663;SDS011;13522;50.018;20.014;2023-02-25T06:36:17;16.03;;;10.25;;
25663;SDS011;13522;50.018;20.014;2023-02-25T06:39:30;16.83;;;11.20;;
25663;SDS011;13522;50.018;20.014;2023-02-25T06:42:44;16.75;;;11.30;;
25663;SDS011;13522;50.018;20.014;2023-02-25T06:45:57;15.40;;;9.58;;
25663;SDS011;13522;50.018;20.014;2023-02-25T06:49:15;13.23;;;8.88;;
25663;SDS011;13522;50.018;20.014;2023-02-25T06:52:27;14.58;;;8.80;;
25663;SDS011;13522;50.018;20.014;2023-02-25T06:55:39;17.65;;;9.18;;
25663;SDS011;13522;50.018;20.014;2023-02-25T06:58:51;14.98;;;10.00;;
25663;SDS011;13522;50.018;20.014;2023-02-25T07:02:05;13.30;;;8.93;;
25663;SDS011;13522;50.018;20.014;2023-02-25T07:05:19;14.38;;;8.00;;
25663;SDS011;13522;50.018;20.014;2023-02-25T07:08:32;14.73;;;9.10;;
25663;SDS011;13522;50.018;20.014;2023-02-25T07:11:44;15.73;;;9.68;;
25663;SDS011;13522;50.018;20.014;2023-02-25T07:14:56;14.78;;;10.35;;
25663;SDS011;13522;50.018;20.014;2023-02-25T07:18:09;12.43;;;9.33;;
25663;SDS011;13522;50.018;20.014;2023-02-25T07:21:21;13.75;;;8.88;;
25663;SDS011;13522;50.018;20.014;2023-02-25T07:24:34;13.05;;;8.13;;
25663;SDS011;13522;50.018;20.014;2023-02-25T07:27:46;11.38;;;7.95;;
25663;SDS011;13522;50.018;20.014;2023-02-25T07:31:00;10.55;;;7.75;;
25663;SDS011;13522;50.018;20.014;2023-02-25T07:34:15;12.85;;;8.40;;
25663;SDS011;13522;50.018;20.014;2023-02-25T07:37:27;11.23;;;8.18;;
25663;SDS011;13522;50.018;20.014;2023-02-25T07:40:40;13.10;;;8.38;;
25663;SDS011;13522;50.018;20.014;2023-02-25T07:43:52;17.18;;;9.28;;
25663;SDS011;13522;50.018;20.014;2023-02-25T07:47:04;14.33;;;8.23;;
25663;SDS011;13522;50.018;20.014;2023-02-25T07:50:16;10.93;;;7.93;;
25663;SDS011;13522;50.018;20.014;2023-02-25T07:53:29;12.83;;;7.83;;
25663;SDS011;13522;50.018;20.014;2023-02-25T07:56:42;15.08;;;8.05;;
25663;SDS011;13522;50.018;20.014;2023-02-25T07:59:54;11.03;;;7.55;;
25663;SDS011;13522;50.018;20.014;2023-02-25T08:03:09;12.65;;;7.40;;
25663;SDS011;13522;50.018;20.014;2023-02-25T08:06:21;12.33;;;7.58;;
25663;SDS011;13522;50.018;20.014;2023-02-25T08:09:35;12.88;;;7.05;;
25663;SDS011;13522;50.018;20.014;2023-02-25T08:12:47;10.25;;;7.03;;
25663;SDS011;13522;50.018;20.014;2023-02-25T08:15:59;7.43;;;4.90;;
25663;SDS011;13522;50.018;20.014;2023-02-25T08:19:15;4.37;;;3.30;;
25663;SDS011;13522;50.018;20.014;2023-02-25T08:22:27;3.13;;;2.65;;
25663;SDS011;13522;50.018;20.014;2023-02-25T08:39:45;7.53;;;3.20;;
25663;SDS011;13522;50.018;20.014;2023-02-25T08:42:58;5.25;;;2.90;;
25663;SDS011;13522;50.018;20.014;2023-02-25T08:46:19;3.98;;;2.70;;
25663;SDS011;13522;50.018;20.014;2023-02-25T08:49:40;5.90;;;2.50;;
25663;SDS011;13522;50.018;20.014;2023-02-25T08:52:59;4.80;;;2.90;;
25663;SDS011;13522;50.018;20.014;2023-02-25T08:56:18;3.03;;;2.03;;
25663;SDS011;13522;50.018;20.014;2023-02-25T08:59:31;3.08;;;2.23;;
25663;SDS011;13522;50.018;20.014;2023-02-25T09:02:47;3.28;;;2.28;;
25663;SDS011;13522;50.018;20.014;2023-02-25T09:06:00;5.35;;;2.23;;
25663;SDS011;13522;50.018;20.014;2023-02-25T09:09:14;4.63;;;2.63;;
25663;SDS011;13522;50.018;20.014;2023-02-25T09:15:45;4.95;;;2.10;;
25663;SDS011;13522;50.018;20.014;2023-02-25T09:19:08;3.93;;;2.28;;
25663;SDS011;13522;50.018;20.014;2023-02-25T09:22:22;4.35;;;2.50;;
25663;SDS011;13522;50.018;20.014;2023-02-25T09:25:38;3.55;;;2.18;;
25663;SDS011;13522;50.018;20.014;2023-02-25T09:28:51;5.85;;;2.28;;
25663;SDS011;13522;50.018;20.014;2023-02-25T09:32:03;4.15;;;2.10;;
25663;SDS011;13522;50.018;20.014;2023-02-25T09:35:19;5.28;;;2.13;;
25663;SDS011;13522;50.018;20.014;2023-02-25T09:38:31;3.38;;;1.55;;
25663;SDS011;13522;50.018;20.014;2023-02-25T09:41:49;3.43;;;1.95;;
25663;SDS011;13522;50.018;20.014;2023-02-25T09:45:08;5.50;;;2.00;;
25663;SDS011;13522;50.018;20.014;2023-02-25T09:48:26;3.05;;;1.90;;
25663;SDS011;13522;50.018;20.014;2023-02-25T09:51:42;3.55;;;2.00;;
25663;SDS011;13522;50.018;20.014;2023-02-25T09:55:01;6.55;;;2.23;;
25663;SDS011;13522;50.018;20.014;2023-02-25T09:58:23;5.20;;;2.18;;
25663;SDS011;13522;50.018;20.014;2023-02-25T10:01:45;4.05;;;2.23;;
25663;SDS011;13522;50.018;20.014;2023-02-25T10:05:13;4.63;;;2.20;;
25663;SDS011;13522;50.018;20.014;2023-02-25T10:08:33;3.58;;;2.18;;
25663;SDS011;13522;50.018;20.014;2023-02-25T10:11:52;5.18;;;1.80;;
25663;SDS011;13522;50.018;20.014;2023-02-25T10:15:19;2.78;;;1.70;;
25663;SDS011;13522;50.018;20.014;2023-02-25T10:18:46;3.50;;;1.70;;
25663;SDS011;13522;50.018;20.014;2023-02-25T10:25:53;3.50;;;1.90;;
25663;SDS011;13522;50.018;20.014;2023-02-25T10:29:15;3.35;;;1.60;;
25663;SDS011;13522;50.018;20.014;2023-02-25T10:32:32;4.70;;;1.58;;
25663;SDS011;13522;50.018;20.014;2023-02-25T10:35:46;3.88;;;1.83;;
25663;SDS011;13522;50.018;20.014;2023-02-25T10:39:04;3.43;;;1.60;;
25663;SDS011;13522;50.018;20.014;2023-02-25T10:42:19;4.38;;;1.65;;
25663;SDS011;13522;50.018;20.014;2023-02-25T10:46:02;4.50;;;1.80;;
25663;SDS011;13522;50.018;20.014;2023-02-25T10:54:02;5.30;;;1.53;;
25663;SDS011;13522;50.018;20.014;2023-02-25T10:58:29;4.80;;;1.43;;
25663;SDS011;13522;50.018;20.014;2023-02-25T11:01:47;4.03;;;1.55;;
25663;SDS011;13522;50.018;20.014;2023-02-25T11:05:36;2.95;;;1.20;;
25663;SDS011;13522;50.018;20.014;2023-02-25T11:08:49;4.30;;;1.43;;
25663;SDS011;13522;50.018;20.014;2023-02-25T11:13:13;6.18;;;1.45;;
25663;SDS011;13522;50.018;20.014;2023-02-25T11:16:33;2.43;;;1.38;;
25663;SDS011;13522;50.018;20.014;2023-02-25T11:19:47;4.25;;;1.63;;
25663;SDS011;13522;50.018;20.014;2023-02-25T11:24:09;3.18;;;1.30;;
25663;SDS011;13522;50.018;20.014;2023-02-25T11:27:31;3.48;;;1.38;;
25663;SDS011;13522;50.018;20.014;2023-02-25T11:30:46;2.25;;;1.00;;
25663;SDS011;13522;50.018;20.014;2023-02-25T11:34:27;4.03;;;1.13;;
25663;SDS011;13522;50.018;20.014;2023-02-25T11:37:44;3.63;;;1.30;;
25663;SDS011;13522;50.018;20.014;2023-02-25T11:41:25;2.45;;;1.40;;
25663;SDS011;13522;50.018;20.014;2023-02-25T11:45:50;3.23;;;1.50;;
25663;SDS011;13522;50.018;20.014;2023-02-25T11:58:09;2.38;;;1.70;;
25663;SDS011;13522;50.018;20.014;2023-02-25T12:01:32;4.53;;;1.78;;
25663;SDS011;13522;50.018;20.014;2023-02-25T12:25:11;3.08;;;1.70;;
25663;SDS011;13522;50.018;20.014;2023-02-25T12:28:36;4.40;;;1.95;;
25663;SDS011;13522;50.018;20.014;2023-02-25T12:39:44;3.53;;;1.70;;
25663;SDS011;13522;50.018;20.014;2023-02-25T12:43:25;2.48;;;1.68;;
25663;SDS011;13522;50.018;20.014;2023-02-25T13:07:49;3.05;;;1.58;;
25663;SDS011;13522;50.018;20.014;2023-02-25T13:11:17;2.75;;;1.70;;
25663;SDS011;13522;50.018;20.014;2023-02-25T13:14:41;3.63;;;1.53;;
25663;SDS011;13522;50.018;20.014;2023-02-25T13:25:42;3.18;;;1.93;;
25663;SDS011;13522;50.018;20.014;2023-02-25T13:29:10;4.50;;;2.15;;
25663;SDS011;13522;50.018;20.014;2023-02-25T13:32:39;4.00;;;2.05;;
25663;SDS011;13522;50.018;20.014;2023-02-25T13:45:07;2.88;;;1.60;;
25663;SDS011;13522;50.018;20.014;2023-02-25T13:49:07;2.98;;;1.75;;
25663;SDS011;13522;50.018;20.014;2023-02-25T13:52:50;2.65;;;2.05;;
25663;SDS011;13522;50.018;20.014;2023-02-25T13:56:28;4.30;;;2.55;;
25663;SDS011;13522;50.018;20.014;2023-02-25T14:08:14;5.50;;;2.40;;
25663;SDS011;13522;50.018;20.014;2023-02-25T14:11:48;3.70;;;2.20;;
25663;SDS011;13522;50.018;20.014;2023-02-25T14:22:47;4.77;;;2.50;;
25663;SDS011;13522;50.018;20.014;2023-02-25T14:27:18;3.33;;;2.40;;
25663;SDS011;13522;50.018;20.014;2023-02-25T14:30:39;4.05;;;2.33;;
25663;SDS011;13522;50.018;20.014;2023-02-25T15:42:15;3.78;;;1.95;;
25663;SDS011;13522;50.018;20.014;2023-02-25T15:54:03;2.55;;;1.60;;
25663;SDS011;13522;50.018;20.014;2023-02-25T15:58:54;3.35;;;1.78;;
25663;SDS011;13522;50.018;20.014;2023-02-25T16:02:02;3.35;;;2.10;;
25663;SDS011;13522;50.018;20.014;2023-02-25T16:06:30;5.18;;;2.80;;
25663;SDS011;13522;50.018;20.014;2023-02-25T16:09:50;4.30;;;2.50;;
25663;SDS011;13522;50.018;20.014;2023-02-25T16:13:07;3.75;;;2.50;;
25663;SDS011;13522;50.018;20.014;2023-02-25T16:16:56;5.55;;;3.05;;
25663;SDS011;13522;50.018;20.014;2023-02-25T16:20:15;4.73;;;2.88;;
25663;SDS011;13522;50.018;20.014;2023-02-25T16:23:32;8.58;;;4.13;;
25663;SDS011;13522;50.018;20.014;2023-02-25T16:26:49;5.30;;;3.50;;
25663;SDS011;13522;50.018;20.014;2023-02-25T16:30:09;8.00;;;3.38;;
25663;SDS011;13522;50.018;20.014;2023-02-25T16:33:47;5.65;;;3.30;;
25663;SDS011;13522;50.018;20.014;2023-02-25T16:37:36;5.38;;;3.20;;
25663;SDS011;13522;50.018;20.014;2023-02-25T16:40:56;5.13;;;3.40;;
25663;SDS011;13522;50.018;20.014;2023-02-25T16:44:16;5.68;;;3.68;;
25663;SDS011;13522;50.018;20.014;2023-02-25T16:47:31;6.43;;;3.60;;
25663;SDS011;13522;50.018;20.014;2023-02-25T16:50:46;4.50;;;3.13;;
25663;SDS011;13522;50.018;20.014;2023-02-25T16:54:46;5.70;;;3.20;;
25663;SDS011;13522;50.018;20.014;2023-02-25T16:58:05;6.10;;;3.45;;
25663;SDS011;13522;50.018;20.014;2023-02-25T17:01:31;5.20;;;3.43;;
25663;SDS011;13522;50.018;20.014;2023-02-25T17:04:47;6.25;;;3.83;;
25663;SDS011;13522;50.018;20.014;2023-02-25T17:08:02;6.88;;;4.05;;
25663;SDS011;13522;50.018;20.014;2023-02-25T17:11:19;6.98;;;4.15;;
25663;SDS011;13522;50.018;20.014;2023-02-25T17:15:22;6.23;;;3.90;;
25663;SDS011;13522;50.018;20.014;2023-02-25T17:18:40;6.28;;;3.85;;
25663;SDS011;13522;50.018;20.014;2023-02-25T17:21:57;7.33;;;4.25;;
25663;SDS011;13522;50.018;20.014;2023-02-25T17:25:11;6.60;;;3.80;;
25663;SDS011;13522;50.018;20.014;2023-02-25T17:28:26;5.90;;;3.43;;
25663;SDS011;13522;50.018;20.014;2023-02-25T17:31:43;7.00;;;3.40;;
25663;SDS011;13522;50.018;20.014;2023-02-25T17:34:59;6.38;;;3.18;;
25663;SDS011;13522;50.018;20.014;2023-02-25T17:38:13;4.88;;;3.10;;
25663;SDS011;13522;50.018;20.014;2023-02-25T17:41:29;5.35;;;3.13;;
25663;SDS011;13522;50.018;20.014;2023-02-25T17:44:44;5.48;;;3.73;;
25663;SDS011;13522;50.018;20.014;2023-02-25T17:47:56;6.13;;;4.08;;
25663;SDS011;13522;50.018;20.014;2023-02-25T17:55:32;6.18;;;3.88;;
25663;SDS011;13522;50.018;20.014;2023-02-25T17:58:45;6.10;;;4.00;;
25663;SDS011;13522;50.018;20.014;2023-02-25T18:02:44;6.38;;;4.55;;
25663;SDS011;13522;50.018;20.014;2023-02-25T18:12:33;6.50;;;4.65;;
25663;SDS011;13522;50.018;20.014;2023-02-25T18:16:28;7.78;;;5.60;;
25663;SDS011;13522;50.018;20.014;2023-02-25T18:19:46;6.95;;;4.85;;
25663;SDS011;13522;50.018;20.014;2023-02-25T18:23:01;6.30;;;4.80;;
25663;SDS011;13522;50.018;20.014;2023-02-25T18:27:06;6.58;;;4.70;;
25663;SDS011;13522;50.018;20.014;2023-02-25T18:31:30;7.38;;;4.70;;
25663;SDS011;13522;50.018;20.014;2023-02-25T18:36:00;6.23;;;4.50;;
25663;SDS011;13522;50.018;20.014;2023-02-25T18:43:16;7.73;;;5.05;;
25663;SDS011;13522;50.018;20.014;2023-02-25T18:46:46;7.10;;;5.35;;
25663;SDS011;13522;50.018;20.014;2023-02-25T18:51:05;8.90;;;5.45;;
25663;SDS011;13522;50.018;20.014;2023-02-25T18:54:22;7.45;;;4.70;;
25663;SDS011;13522;50.018;20.014;2023-02-25T18:57:34;8.60;;;5.13;;
25663;SDS011;13522;50.018;20.014;2023-02-25T19:00:48;8.78;;;5.58;;
25663;SDS011;13522;50.018;20.014;2023-02-25T19:04:05;9.35;;;5.83;;
25663;SDS011;13522;50.018;20.014;2023-02-25T19:07:22;9.98;;;5.88;;
25663;SDS011;13522;50.018;20.014;2023-02-25T19:10:38;9.18;;;5.60;;
25663;SDS011;13522;50.018;20.014;2023-02-25T19:13:51;7.43;;;5.00;;
25663;SDS011;13522;50.018;20.014;2023-02-25T19:17:05;6.80;;;5.03;;
25663;SDS011;13522;50.018;20.014;2023-02-25T19:20:22;7.75;;;4.30;;
25663;SDS011;13522;50.018;20.014;2023-02-25T19:23:34;8.18;;;5.05;;
25663;SDS011;13522;50.018;20.014;2023-02-25T19:26:46;7.68;;;5.40;;
25663;SDS011;13522;50.018;20.014;2023-02-25T19:29:58;7.30;;;4.80;;
25663;SDS011;13522;50.018;20.014;2023-02-25T19:33:11;8.18;;;5.33;;
25663;SDS011;13522;50.018;20.014;2023-02-25T19:36:24;7.35;;;5.13;;
25663;SDS011;13522;50.018;20.014;2023-02-25T19:39:36;7.83;;;4.30;;
25663;SDS011;13522;50.018;20.014;2023-02-25T19:42:49;6.45;;;4.60;;
25663;SDS011;13522;50.018;20.014;2023-02-25T19:46:05;8.18;;;4.78;;
25663;SDS011;13522;50.018;20.014;2023-02-25T19:49:20;7.65;;;5.10;;
25663;SDS011;13522;50.018;20.014;2023-02-25T19:52:33;6.65;;;4.33;;
25663;SDS011;13522;50.018;20.014;2023-02-25T19:55:45;6.45;;;4.20;;
25663;SDS011;13522;50.018;20.014;2023-02-25T19:58:57;7.00;;;4.25;;
25663;SDS011;13522;50.018;20.014;2023-02-25T20:02:11;6.00;;;4.10;;
25663;SDS011;13522;50.018;20.014;2023-02-25T20:05:24;6.58;;;4.65;;
25663;SDS011;13522;50.018;20.014;2023-02-25T20:08:36;7.03;;;4.80;;
25663;SDS011;13522;50.018;20.014;2023-02-25T20:11:51;8.50;;;5.30;;
25663;SDS011;13522;50.018;20.014;2023-02-25T20:15:04;7.25;;;4.98;;
25663;SDS011;13522;50.018;20.014;2023-02-25T20:18:19;8.28;;;5.75;;
25663;SDS011;13522;50.018;20.014;2023-02-25T20:21:31;7.05;;;4.88;;
25663;SDS011;13522;50.018;20.014;2023-02-25T20:24:44;8.60;;;4.55;;
25663;SDS011;13522;50.018;20.014;2023-02-25T20:27:57;7.00;;;5.20;;
25663;SDS011;13522;50.018;20.014;2023-02-25T20:31:10;8.25;;;5.80;;
25663;SDS011;13522;50.018;20.014;2023-02-25T20:34:25;7.78;;;5.40;;
25663;SDS011;13522;50.018;20.014;2023-02-25T20:37:38;8.00;;;5.55;;
25663;SDS011;13522;50.018;20.014;2023-02-25T20:40:59;8.88;;;5.50;;
25663;SDS011;13522;50.018;20.014;2023-02-25T20:44:12;8.90;;;6.00;;
25663;SDS011;13522;50.018;20.014;2023-02-25T20:47:26;8.55;;;6.00;;
25663;SDS011;13522;50.018;20.014;2023-02-25T20:50:43;11.55;;;7.43;;
25663;SDS011;13522;50.018;20.014;2023-02-25T20:53:57;10.70;;;6.85;;
25663;SDS011;13522;50.018;20.014;2023-02-25T20:57:11;10.08;;;6.33;;
25663;SDS011;13522;50.018;20.014;2023-02-25T21:00:27;9.93;;;6.35;;
25663;SDS011;13522;50.018;20.014;2023-02-25T21:03:39;8.23;;;6.03;;
25663;SDS011;13522;50.018;20.014;2023-02-25T21:06:51;12.25;;;7.30;;
25663;SDS011;13522;50.018;20.014;2023-02-25T21:10:04;11.00;;;7.55;;
25663;SDS011;13522;50.018;20.014;2023-02-25T21:13:19;9.18;;;6.33;;
25663;SDS011;13522;50.018;20.014;2023-02-25T21:16:31;9.95;;;6.53;;
25663;SDS011;13522;50.018;20.014;2023-02-25T21:19:44;11.58;;;6.58;;
25663;SDS011;13522;50.018;20.014;2023-02-25T21:22:56;12.75;;;7.13;;
25663;SDS011;13522;50.018;20.014;2023-02-25T21:26:09;11.15;;;7.50;;
25663;SDS011;13522;50.018;20.014;2023-02-25T21:29:22;10.85;;;7.00;;
25663;SDS011;13522;50.018;20.014;2023-02-25T21:32:35;10.30;;;6.93;;
25663;SDS011;13522;50.018;20.014;2023-02-25T21:35:51;10.93;;;6.60;;
25663;SDS011;13522;50.018;20.014;2023-02-25T21:39:04;9.25;;;6.35;;
25663;SDS011;13522;50.018;20.014;2023-02-25T21:42:16;11.23;;;6.78;;
25663;SDS011;13522;50.018;20.014;2023-02-25T21:45:29;10.53;;;7.08;;
25663;SDS011;13522;50.018;20.014;2023-02-25T21:48:42;13.40;;;6.98;;
25663;SDS011;13522;50.018;20.014;2023-02-25T21:51:56;12.93;;;6.60;;
25663;SDS011;13522;50.018;20.014;2023-02-25T21:55:56;12.48;;;7.45;;
25663;SDS011;13522;50.018;20.014;2023-02-25T21:59:41;14.28;;;8.03;;
25663;SDS011;13522;50.018;20.014;2023-02-25T22:03:21;13.88;;;9.43;;
25663;SDS011;13522;50.018;20.014;2023-02-25T22:06:45;13.63;;;8.75;;
25663;SDS011;13522;50.018;20.014;2023-02-25T22:09:57;13.10;;;8.63;;
25663;SDS011;13522;50.018;20.014;2023-02-25T22:13:11;11.78;;;7.75;;
25663;SDS011;13522;50.018;20.014;2023-02-25T22:16:24;11.30;;;7.78;;
25663;SDS011;13522;50.018;20.014;2023-02-25T22:20:24;14.30;;;9.45;;
25663;SDS011;13522;50.018;20.014;2023-02-25T22:23:50;14.23;;;9.68;;
25663;SDS011;13522;50.018;20.014;2023-02-25T22:27:05;15.73;;;10.28;;
25663;SDS011;13522;50.018;20.014;2023-02-25T22:30:45;13.85;;;9.08;;
25663;SDS011;13522;50.018;20.014;2023-02-25T22:34:45;13.05;;;8.78;;
25663;SDS011;13522;50.018;20.014;2023-02-25T22:38:27;15.33;;;9.03;;
25663;SDS011;13522;50.018;20.014;2023-02-25T22:41:41;16.08;;;10.73;;
25663;SDS011;13522;50.018;20.014;2023-02-25T22:45:22;12.78;;;9.10;;
25663;SDS011;13522;50.018;20.014;2023-02-25T22:48:34;16.03;;;9.70;;
25663;SDS011;13522;50.018;20.014;2023-02-25T22:51:49;13.88;;;8.98;;
25663;SDS011;13522;50.018;20.014;2023-02-25T22:55:04;14.70;;;10.20;;
25663;SDS011;13522;50.018;20.014;2023-02-25T22:58:20;14.48;;;10.08;;
25663;SDS011;13522;50.018;20.014;2023-02-25T23:01:45;15.55;;;10.30;;
25663;SDS011;13522;50.018;20.014;2023-02-25T23:05:44;12.85;;;9.40;;
25663;SDS011;13522;50.018;20.014;2023-02-25T23:09:25;11.30;;;8.35;;
25663;SDS011;13522;50.018;20.014;2023-02-25T23:13:06;14.75;;;10.30;;